Time;durP1;ratioP1;P1;durP2;ratioP2;P2;SDS_P1;SDS_P2;PMS_P1;PMS_P2;Temp;Humidity;BMP_temperature;BMP_pressure;BME280_temperature;BME280_humidity;BME280_pressure;Samples;Min_cycle;Max_cycle;Signal;HPM_P1;HPM_P2
2024/03/06 00:01:33;;;;;;;3.90;3.47;;;6.70;99.90;;;;;;5054421;28;20408;-79
2024/03/06 00:03:59;;;;;;;4.80;3.40;;;6.70;99.90;;;;;;5055145;28;20397;-78
2024/03/06 00:06:25;;;;;;;4.00;3.60;;;6.80;99.90;;;;;;5054800;28;20409;-79
2024/03/06 00:08:51;;;;;;;4.57;3.50;;;6.70;99.90;;;;;;5039997;28;20424;-78
2024/03/06 00:11:17;;;;;;;3.87;3.57;;;6.40;99.90;;;;;;5057277;28;20393;-79
2024/03/06 00:13:43;;;;;;;5.00;3.70;;;6.80;99.90;;;;;;5054650;28;20389;-79
2024/03/06 00:16:08;;;;;;;3.88;3.55;;;6.70;99.90;;;;;;5053875;28;21216;-79
2024/03/06 00:18:34;;;;;;;4.00;3.60;;;6.70;99.90;;;;;;5053770;28;20390;-79
2024/03/06 00:21:00;;;;;;;3.67;3.35;;;6.80;99.90;;;;;;5054433;28;20398;-78
2024/03/06 00:23:26;;;;;;;3.08;2.78;;;6.70;99.90;;;;;;5053940;28;20378;-78
2024/03/06 00:25:52;;;;;;;3.88;3.15;;;6.70;99.90;;;;;;5035538;28;20409;-78
2024/03/06 00:28:17;;;;;;;3.40;3.10;;;6.80;99.90;;;;;;5053671;28;20393;-80
2024/03/06 00:30:43;;;;;;;3.50;3.20;;;6.70;99.90;;;;;;5057429;28;20404;-78
2024/03/06 00:33:08;;;;;;;3.10;2.80;;;6.70;99.90;;;;;;5056326;28;20693;-78
2024/03/06 00:35:34;;;;;;;3.13;2.60;;;6.70;99.90;;;;;;5073995;28;20395;-79
2024/03/06 00:38:02;;;;;;;2.80;2.60;;;6.70;99.90;;;;;;5059238;28;20394;-79
2024/03/06 00:40:30;;;;;;;2.72;2.50;;;6.70;99.90;;;;;;5035920;28;20382;-79
2024/03/06 00:42:56;;;;;;;3.10;2.55;;;6.60;99.90;;;;;;5038459;28;21011;-79
2024/03/06 00:45:22;;;;;;;3.20;2.90;;;6.70;99.90;;;;;;5053267;28;20490;-79
2024/03/06 00:47:48;;;;;;;3.50;3.00;;;6.70;99.90;;;;;;5053611;28;20751;-79
2024/03/06 00:50:13;;;;;;;3.70;3.10;;;6.70;99.90;;;;;;5054381;28;20435;-79
2024/03/06 00:52:39;;;;;;;4.00;3.00;;;6.70;99.90;;;;;;5055786;28;20413;-78
2024/03/06 00:55:05;;;;;;;3.20;2.90;;;6.70;99.90;;;;;;5052980;28;20458;-78
2024/03/06 00:57:30;;;;;;;3.80;2.92;;;6.70;99.90;;;;;;5053767;28;20472;-79
2024/03/06 00:59:56;;;;;;;2.77;2.57;;;6.60;99.90;;;;;;5053679;28;20425;-78
2024/03/06 01:02:22;;;;;;;3.03;2.57;;;6.60;99.90;;;;;;5060209;28;20890;-79
2024/03/06 01:04:47;;;;;;;3.07;2.53;;;6.60;99.90;;;;;;5072747;28;20400;-78
2024/03/06 01:07:13;;;;;;;2.97;2.70;;;6.70;99.90;;;;;;5073201;28;20922;-79
2024/03/06 01:09:38;;;;;;;6.10;3.13;;;6.60;99.90;;;;;;5073420;28;20376;-79
2024/03/06 01:12:05;;;;;;;3.00;2.80;;;6.50;99.90;;;;;;5047103;28;20384;-78
2024/03/06 01:14:31;;;;;;;2.70;2.50;;;6.60;99.90;;;;;;5061248;28;20371;-78
2024/03/06 01:16:56;;;;;;;3.60;3.03;;;6.60;99.90;;;;;;5084300;28;20387;-79
2024/03/06 01:19:23;;;;;;;3.22;2.80;;;6.60;99.90;;;;;;5084171;28;20379;-78
2024/03/06 01:21:48;;;;;;;3.10;2.80;;;6.50;99.90;;;;;;5077549;28;20396;-79
2024/03/06 01:24:14;;;;;;;4.70;2.90;;;6.50;99.90;;;;;;5070395;28;20499;-79
2024/03/06 01:26:40;;;;;;;4.10;3.60;;;6.60;99.90;;;;;;5066099;28;20502;-78
2024/03/06 01:29:06;;;;;;;3.10;2.90;;;6.60;99.90;;;;;;5037838;28;20393;-78
2024/03/06 01:31:32;;;;;;;2.92;2.72;;;6.70;99.90;;;;;;5060930;28;20448;-78
2024/03/06 01:33:57;;;;;;;2.85;2.60;;;6.60;99.90;;;;;;5066003;28;20384;-78
2024/03/06 01:36:23;;;;;;;3.67;2.80;;;6.60;99.90;;;;;;5084440;28;20384;-78
2024/03/06 01:38:48;;;;;;;2.80;2.60;;;6.60;99.90;;;;;;5078458;28;20384;-79
2024/03/06 01:41:15;;;;;;;3.80;2.83;;;6.50;99.90;;;;;;5053154;28;20392;-79
2024/03/06 01:43:40;;;;;;;3.20;2.90;;;6.60;99.90;;;;;;5070075;28;20400;-79
2024/03/06 01:46:06;;;;;;;3.73;2.97;;;6.60;99.90;;;;;;5055540;28;20416;-79
2024/03/06 01:48:33;;;;;;;4.03;2.70;;;6.60;99.90;;;;;;5052714;28;20392;-78
2024/03/06 01:51:02;;;;;;;3.00;2.70;;;6.40;99.90;;;;;;5053198;28;20474;-78
2024/03/06 01:53:30;;;;;;;2.80;2.58;;;6.40;99.90;;;;;;5055649;28;20468;-79
2024/03/06 01:55:56;;;;;;;4.00;3.33;;;6.50;99.90;;;;;;5057307;28;20421;-79
2024/03/06 01:58:23;;;;;;;3.55;2.85;;;6.50;99.90;;;;;;5056635;28;20424;-79
2024/03/06 02:00:50;;;;;;;5.10;3.28;;;6.50;99.90;;;;;;5040622;28;20396;-79
2024/03/06 02:03:16;;;;;;;3.38;2.50;;;6.50;99.90;;;;;;5056284;28;20401;-79
2024/03/06 02:05:43;;;;;;;3.43;3.13;;;6.40;99.90;;;;;;5056511;28;20440;-78
2024/03/06 02:08:08;;;;;;;3.30;2.90;;;6.50;99.90;;;;;;5042543;28;20432;-78
2024/03/06 02:10:34;;;;;;;2.83;2.60;;;6.50;99.90;;;;;;5056457;28;20386;-78
2024/03/06 02:13:00;;;;;;;3.10;2.70;;;6.60;99.90;;;;;;5056182;28;20501;-78
2024/03/06 02:15:25;;;;;;;2.90;2.70;;;6.60;99.90;;;;;;5056386;28;20482;-78
2024/03/06 02:17:53;;;;;;;3.00;2.50;;;6.70;99.90;;;;;;5055729;28;20488;-78
2024/03/06 02:20:23;;;;;;;3.10;2.60;;;6.60;99.90;;;;;;5069858;28;20387;-77
2024/03/06 02:22:48;;;;;;;2.90;2.70;;;6.60;99.90;;;;;;5075633;28;20384;-79
2024/03/06 02:25:15;;;;;;;6.07;3.13;;;6.50;99.90;;;;;;5067423;28;20436;-77
2024/03/06 02:27:40;;;;;;;2.88;2.67;;;6.40;99.90;;;;;;5056641;28;20382;-78
2024/03/06 02:30:06;;;;;;;3.30;2.40;;;6.50;99.90;;;;;;5055922;28;20443;-78
2024/03/06 02:32:32;;;;;;;4.18;3.10;;;6.40;99.90;;;;;;5071797;28;20380;-78
2024/03/06 02:34:57;;;;;;;3.47;2.70;;;6.50;99.90;;;;;;5075755;28;20410;-78
2024/03/06 02:37:24;;;;;;;2.95;2.65;;;6.40;99.90;;;;;;5076484;28;20395;-79
2024/03/06 02:39:50;;;;;;;3.63;2.83;;;6.60;99.90;;;;;;5053082;28;20401;-78
2024/03/06 02:42:16;;;;;;;4.65;3.03;;;6.60;99.90;;;;;;5055891;28;20931;-78
2024/03/06 02:44:42;;;;;;;3.60;3.30;;;6.60;99.90;;;;;;5055864;28;20417;-78
2024/03/06 02:47:08;;;;;;;4.93;3.60;;;6.60;99.90;;;;;;5038075;28;20776;-78
2024/03/06 02:49:34;;;;;;;4.30;3.30;;;6.70;99.90;;;;;;5055711;28;20373;-78
2024/03/06 02:52:00;;;;;;;4.00;3.60;;;6.80;99.90;;;;;;5055086;28;20406;-78
2024/03/06 02:54:26;;;;;;;3.92;3.40;;;6.70;99.90;;;;;;5054740;28;20472;-79
2024/03/06 02:56:52;;;;;;;3.80;3.50;;;6.50;99.90;;;;;;5055967;28;20440;-78
2024/03/06 02:59:18;;;;;;;4.78;3.92;;;6.50;99.90;;;;;;5055628;28;20381;-78
2024/03/06 03:01:44;;;;;;;4.53;3.92;;;6.50;99.90;;;;;;5054779;28;20418;-78
2024/03/06 03:04:10;;;;;;;3.92;3.63;;;6.60;99.90;;;;;;5054721;28;20389;-79
2024/03/06 03:06:35;;;;;;;4.10;3.80;;;6.40;99.90;;;;;;5037531;28;20476;-79
2024/03/06 03:09:03;;;;;;;6.03;5.00;;;6.50;99.90;;;;;;5065907;28;20426;-78
2024/03/06 03:11:29;;;;;;;4.80;4.30;;;6.40;99.90;;;;;;5022009;28;20443;-78
2024/03/06 03:13:55;;;;;;;4.60;4.20;;;6.50;99.90;;;;;;5042668;28;20863;-78
2024/03/06 03:16:21;;;;;;;6.90;4.33;;;6.50;99.90;;;;;;5044456;28;20405;-78
2024/03/06 03:18:47;;;;;;;4.90;4.50;;;6.50;99.90;;;;;;5042371;28;20387;-78
2024/03/06 03:21:13;;;;;;;4.40;4.10;;;6.50;99.90;;;;;;5044530;28;20432;-79
2024/03/06 03:23:39;;;;;;;5.20;4.60;;;6.30;99.90;;;;;;5058670;28;20802;-78
2024/03/06 03:26:06;;;;;;;4.63;4.22;;;6.50;99.90;;;;;;5062192;28;20429;-78
2024/03/06 03:28:32;;;;;;;4.40;4.00;;;6.50;99.90;;;;;;5040599;28;20384;-78
2024/03/06 03:30:58;;;;;;;5.18;4.68;;;6.50;99.90;;;;;;5058021;28;20465;-78
2024/03/06 03:33:24;;;;;;;4.50;4.10;;;6.60;99.90;;;;;;5055961;28;20440;-79
2024/03/06 03:35:49;;;;;;;4.20;3.90;;;6.60;99.90;;;;;;5037714;28;20385;-77
2024/03/06 03:38:15;;;;;;;4.90;4.40;;;6.60;99.90;;;;;;5037921;28;20397;-79
2024/03/06 03:40:40;;;;;;;4.17;3.83;;;6.60;99.90;;;;;;5055193;28;20394;-78
2024/03/06 03:43:06;;;;;;;5.23;4.30;;;6.50;99.90;;;;;;5037082;28;20401;-77
2024/03/06 03:45:33;;;;;;;6.03;4.20;;;6.60;99.90;;;;;;5036782;28;20547;-80
2024/03/06 03:48:03;;;;;;;4.00;3.70;;;6.50;99.90;;;;;;5054931;28;20388;-79
2024/03/06 03:50:29;;;;;;;4.00;3.60;;;6.50;99.90;;;;;;5054561;28;20385;-79
2024/03/06 03:52:57;;;;;;;4.37;3.97;;;6.30;99.90;;;;;;5053146;28;20405;-79
2024/03/06 03:55:24;;;;;;;4.60;4.20;;;6.30;99.90;;;;;;5060584;28;20478;-79
2024/03/06 03:57:49;;;;;;;4.80;4.20;;;6.30;99.90;;;;;;5064851;28;20478;-78
2024/03/06 04:00:15;;;;;;;5.20;4.70;;;6.40;99.90;;;;;;5064702;28;20397;-78
2024/03/06 04:02:42;;;;;;;5.07;4.30;;;6.40;99.90;;;;;;5064385;28;20389;-78
2024/03/06 04:05:07;;;;;;;4.80;4.40;;;6.40;99.90;;;;;;5064385;28;20441;-78
2024/03/06 04:07:33;;;;;;;5.10;3.60;;;6.40;99.90;;;;;;5062158;28;20409;-78
2024/03/06 04:09:58;;;;;;;4.20;3.90;;;6.40;99.90;;;;;;5058952;28;20812;-77
2024/03/06 04:12:24;;;;;;;4.53;3.40;;;6.40;99.90;;;;;;5056363;28;20427;-78
2024/03/06 04:14:50;;;;;;;4.53;3.70;;;6.30;99.90;;;;;;5061589;28;20722;-78
2024/03/06 04:17:15;;;;;;;3.53;3.23;;;6.50;99.90;;;;;;5055354;28;20476;-78
2024/03/06 04:19:41;;;;;;;3.00;2.70;;;6.40;99.90;;;;;;5055322;28;20442;-78
2024/03/06 04:22:06;;;;;;;3.33;2.50;;;6.40;99.90;;;;;;5058084;28;20384;-78
2024/03/06 04:24:32;;;;;;;2.20;2.00;;;6.30;99.90;;;;;;5052733;28;20393;-79
2024/03/06 04:26:57;;;;;;;2.77;1.90;;;6.30;99.90;;;;;;5036896;28;20393;-79
2024/03/06 04:29:23;;;;;;;2.10;1.90;;;6.20;99.90;;;;;;5054446;28;20495;-79
2024/03/06 04:31:48;;;;;;;1.80;1.70;;;6.10;99.90;;;;;;5036332;28;20406;-80
2024/03/06 04:34:14;;;;;;;2.20;1.60;;;6.10;99.90;;;;;;5039904;28;20393;-79
2024/03/06 04:36:40;;;;;;;2.35;1.90;;;6.20;99.90;;;;;;5053033;28;20381;-80
2024/03/06 04:39:07;;;;;;;2.72;2.30;;;6.20;99.90;;;;;;5034310;28;20480;-81
2024/03/06 04:41:36;;;;;;;3.70;2.03;;;6.10;99.90;;;;;;5053989;28;20385;-79
2024/03/06 04:44:01;;;;;;;2.30;2.03;;;6.10;99.90;;;;;;5058782;28;20752;-78
2024/03/06 04:46:27;;;;;;;2.60;2.20;;;6.10;99.90;;;;;;5065196;28;20405;-79
2024/03/06 04:48:52;;;;;;;2.30;2.00;;;6.00;99.90;;;;;;5053290;28;20386;-78
2024/03/06 04:51:19;;;;;;;2.40;2.20;;;6.00;99.90;;;;;;5060124;28;20401;-77
2024/03/06 04:53:45;;;;;;;2.78;2.10;;;6.00;99.90;;;;;;5064445;28;20386;-78
2024/03/06 04:56:11;;;;;;;4.20;2.08;;;6.10;99.90;;;;;;5044973;28;20400;-78
2024/03/06 04:58:36;;;;;;;2.40;2.05;;;6.10;99.90;;;;;;5060305;28;20417;-79
2024/03/06 05:01:03;;;;;;;3.57;2.17;;;6.10;99.90;;;;;;5075259;28;20836;-79
2024/03/06 05:03:29;;;;;;;2.55;2.22;;;6.00;99.90;;;;;;5064648;28;20397;-79
2024/03/06 05:05:54;;;;;;;2.50;2.10;;;6.00;99.90;;;;;;5053621;28;20451;-78
2024/03/06 05:08:20;;;;;;;2.20;2.00;;;5.90;99.90;;;;;;5053861;28;20396;-79
2024/03/06 05:10:46;;;;;;;2.70;1.90;;;5.90;99.90;;;;;;5053806;28;20404;-79
2024/03/06 05:13:11;;;;;;;3.33;2.03;;;5.90;99.90;;;;;;5060427;28;20380;-78
2024/03/06 05:15:38;;;;;;;3.05;2.10;;;5.60;99.90;;;;;;5055586;28;20890;-80
2024/03/06 05:18:05;;;;;;;2.20;2.00;;;5.90;99.90;;;;;;5066251;28;20381;-79
2024/03/06 05:20:33;;;;;;;3.42;2.25;;;5.90;99.90;;;;;;5054024;28;20837;-78
2024/03/06 05:22:58;;;;;;;2.83;2.33;;;5.90;99.90;;;;;;5054393;28;20417;-78
2024/03/06 05:25:24;;;;;;;2.60;2.10;;;5.90;99.90;;;;;;5062637;28;20817;-78
2024/03/06 05:27:50;;;;;;;2.30;1.60;;;5.90;99.90;;;;;;5067366;28;20407;-78
2024/03/06 05:30:15;;;;;;;1.80;1.70;;;5.90;99.90;;;;;;5059391;28;20389;-79
2024/03/06 05:32:41;;;;;;;1.90;1.70;;;5.90;99.90;;;;;;5051318;28;20444;-78
2024/03/06 05:35:10;;;;;;;1.90;1.70;;;5.80;99.90;;;;;;5053511;28;20408;-79
2024/03/06 05:37:37;;;;;;;1.50;1.40;;;5.70;99.90;;;;;;5053217;28;20443;-78
2024/03/06 05:40:06;;;;;;;2.60;1.63;;;5.70;99.90;;;;;;5039833;28;20390;-80
2024/03/06 05:42:31;;;;;;;1.83;1.63;;;5.70;99.90;;;;;;5095398;22;21017;-84
2024/03/06 05:45:04;;;;;;;1.70;1.60;;;5.60;99.90;;;;;;5035047;28;20414;-84
2024/03/06 05:47:31;;;;;;;1.80;1.70;;;5.60;99.90;;;;;;5036980;28;20385;-83
2024/03/06 05:49:57;;;;;;;2.03;1.90;;;5.70;99.90;;;;;;5040872;28;20404;-83
2024/03/06 05:52:22;;;;;;;1.67;1.37;;;5.60;99.90;;;;;;5038875;28;20393;-83
2024/03/06 05:54:48;;;;;;;2.37;1.83;;;5.60;99.90;;;;;;5026291;28;20396;-83
2024/03/06 05:57:15;;;;;;;1.73;1.63;;;5.60;99.90;;;;;;5013942;28;20397;-83
2024/03/06 05:59:40;;;;;;;2.72;1.90;;;5.40;99.90;;;;;;5033389;28;20462;-83
2024/03/06 06:02:06;;;;;;;2.60;1.70;;;5.60;99.90;;;;;;5044199;28;20436;-84
2024/03/06 06:04:31;;;;;;;2.80;1.98;;;5.70;99.90;;;;;;5053022;28;20848;-84
2024/03/06 06:06:57;;;;;;;2.53;1.90;;;5.60;99.90;;;;;;5055142;28;20472;-85
2024/03/06 06:09:22;;;;;;;3.00;1.70;;;5.60;99.90;;;;;;5056317;28;20411;-83
2024/03/06 06:11:50;;;;;;;2.75;1.80;;;5.50;99.90;;;;;;5036554;28;20390;-84
2024/03/06 06:14:16;;;;;;;2.23;1.70;;;5.60;99.90;;;;;;5067986;28;20390;-82
2024/03/06 06:16:42;;;;;;;3.20;2.10;;;5.60;99.90;;;;;;5052123;28;20425;-84
2024/03/06 06:19:08;;;;;;;2.58;2.00;;;5.60;99.90;;;;;;5035369;28;20498;-84
2024/03/06 06:21:35;;;;;;;1.70;1.60;;;5.70;99.90;;;;;;5034565;28;20911;-83
2024/03/06 06:24:01;;;;;;;3.20;2.00;;;5.60;99.90;;;;;;5030682;28;20443;-84
2024/03/06 06:26:27;;;;;;;2.60;1.90;;;5.60;99.90;;;;;;5031012;28;20874;-84
2024/03/06 06:28:52;;;;;;;2.57;2.03;;;5.60;99.90;;;;;;5030837;28;20391;-85
2024/03/06 06:31:18;;;;;;;2.10;1.70;;;5.60;99.90;;;;;;5029559;28;20437;-83
2024/03/06 06:33:45;;;;;;;2.00;1.70;;;5.70;99.90;;;;;;5031612;28;20855;-82
2024/03/06 06:36:11;;;;;;;1.67;1.58;;;5.60;99.90;;;;;;5033216;28;20459;-83
2024/03/06 06:38:36;;;;;;;1.87;1.63;;;5.60;99.90;;;;;;5036404;28;20383;-82
2024/03/06 06:41:02;;;;;;;1.70;1.40;;;5.60;99.90;;;;;;5039146;28;20392;-83
2024/03/06 06:43:28;;;;;;;2.20;2.00;;;5.30;99.90;;;;;;5055063;28;20401;-84
2024/03/06 06:45:53;;;;;;;1.70;1.60;;;5.40;99.90;;;;;;5053425;28;20765;-83
2024/03/06 06:48:19;;;;;;;1.50;1.40;;;5.50;99.90;;;;;;5039975;28;20803;-84
2024/03/06 06:50:47;;;;;;;2.03;1.70;;;5.40;99.90;;;;;;5020547;28;20414;-84
2024/03/06 06:53:13;;;;;;;2.42;2.15;;;5.40;99.90;;;;;;5054817;28;20374;-84
2024/03/06 06:55:39;;;;;;;1.90;1.80;;;5.50;99.90;;;;;;5053872;28;20808;-84
2024/03/06 06:58:04;;;;;;;2.30;2.10;;;5.40;99.90;;;;;;5057688;28;20389;-83
2024/03/06 07:00:30;;;;;;;2.50;2.30;;;5.50;99.90;;;;;;5057809;28;20398;-84
2024/03/06 07:02:58;;;;;;;2.80;2.27;;;5.60;99.90;;;;;;5057564;28;20893;-82
2024/03/06 07:05:24;;;;;;;2.45;2.25;;;5.40;99.90;;;;;;5039027;28;20416;-83
2024/03/06 07:07:49;;;;;;;2.42;2.22;;;5.60;99.90;;;;;;5047467;28;20933;-84
2024/03/06 07:10:15;;;;;;;2.60;2.40;;;5.50;99.90;;;;;;5055788;28;20381;-84
2024/03/06 07:12:40;;;;;;;2.80;2.50;;;5.60;99.90;;;;;;5055898;28;20897;-85
2024/03/06 07:15:06;;;;;;;3.33;2.73;;;5.40;99.90;;;;;;5051763;28;20404;-83
2024/03/06 07:17:32;;;;;;;3.22;2.30;;;5.60;99.90;;;;;;5036126;28;20395;-84
2024/03/06 07:19:58;;;;;;;2.65;2.45;;;5.50;99.90;;;;;;5035798;28;20467;-83
2024/03/06 07:22:23;;;;;;;2.75;2.55;;;5.50;99.90;;;;;;5040385;28;20851;-84
2024/03/06 07:24:49;;;;;;;1.90;1.80;;;5.30;99.90;;;;;;5014772;28;20873;-84
2024/03/06 07:27:15;;;;;;;2.20;2.00;;;5.40;99.90;;;;;;5027808;28;20391;-84
2024/03/06 07:29:40;;;;;;;2.72;1.90;;;5.40;99.90;;;;;;5034258;28;20398;-83
2024/03/06 07:32:06;;;;;;;2.15;1.80;;;5.50;99.90;;;;;;5035600;28;20918;-84
2024/03/06 07:34:32;;;;;;;2.30;2.10;;;5.50;99.90;;;;;;5036233;28;20390;-84
2024/03/06 07:37:01;;;;;;;2.60;1.92;;;5.50;99.90;;;;;;5043716;28;20381;-84
2024/03/06 07:39:27;;;;;;;2.22;1.80;;;5.50;99.90;;;;;;5055514;28;20393;-84
2024/03/06 07:41:52;;;;;;;1.90;1.80;;;5.40;99.90;;;;;;5055366;28;20889;-83
2024/03/06 07:44:20;;;;;;;1.80;1.70;;;5.40;99.90;;;;;;5042777;28;20456;-83
2024/03/06 07:46:45;;;;;;;1.73;1.30;;;5.50;99.90;;;;;;5051166;28;20456;-83
2024/03/06 07:49:11;;;;;;;1.33;1.23;;;5.50;99.90;;;;;;5054698;28;20378;-83
2024/03/06 07:51:36;;;;;;;2.17;1.40;;;5.50;99.90;;;;;;5055462;28;20975;-82
2024/03/06 07:54:03;;;;;;;1.60;1.50;;;5.40;99.90;;;;;;5055588;28;20819;-84
2024/03/06 07:56:29;;;;;;;1.80;1.50;;;5.40;99.90;;;;;;5056047;28;20385;-84
2024/03/06 07:58:55;;;;;;;1.40;1.30;;;5.50;99.90;;;;;;5032067;28;20396;-84
2024/03/06 08:01:21;;;;;;;1.58;1.40;;;5.60;99.90;;;;;;5035419;28;20397;-83
2024/03/06 08:03:47;;;;;;;2.10;1.13;;;5.50;99.90;;;;;;5034466;28;20403;-82
2024/03/06 08:06:15;;;;;;;1.35;1.25;;;5.10;99.90;;;;;;5033241;28;20411;-82
2024/03/06 08:08:43;;;;;;;2.08;1.20;;;5.40;99.90;;;;;;5033746;28;20449;-83
2024/03/06 08:11:10;;;;;;;1.37;1.20;;;5.50;99.90;;;;;;5034637;28;20405;-84
2024/03/06 08:13:36;;;;;;;1.77;1.55;;;5.50;99.90;;;;;;5041129;28;20434;-82
2024/03/06 08:16:03;;;;;;;1.40;1.20;;;5.50;99.90;;;;;;5053289;28;20382;-83
2024/03/06 08:18:29;;;;;;;1.90;1.40;;;5.60;99.90;;;;;;5041013;28;20459;-83
2024/03/06 08:20:55;;;;;;;1.60;1.30;;;6.40;99.90;;;;;;5019313;28;20424;-83
2024/03/06 08:23:20;;;;;;;2.80;1.60;;;5.80;99.90;;;;;;5017305;28;20579;-84
2024/03/06 08:25:46;;;;;;;1.47;1.37;;;5.70;99.90;;;;;;5029202;28;20426;-83
2024/03/06 08:28:12;;;;;;;1.40;1.30;;;5.60;99.90;;;;;;5039941;28;20397;-81
2024/03/06 08:30:38;;;;;;;1.55;1.40;;;5.60;99.90;;;;;;5036026;28;20383;-83
2024/03/06 08:33:03;;;;;;;1.50;1.40;;;5.50;99.90;;;;;;5035705;28;20387;-82
2024/03/06 08:35:29;;;;;;;1.60;1.30;;;5.60;99.90;;;;;;5040865;28;20406;-83
2024/03/06 08:37:55;;;;;;;1.40;1.30;;;5.60;99.90;;;;;;5035146;28;20395;-83
2024/03/06 08:40:21;;;;;;;1.47;1.33;;;5.70;99.90;;;;;;5035973;28;20398;-83
2024/03/06 08:42:48;;;;;;;1.40;1.30;;;5.50;99.90;;;;;;5039243;28;20389;-83
2024/03/06 08:45:17;;;;;;;1.60;1.40;;;5.60;99.90;;;;;;5038639;28;20404;-82
2024/03/06 08:47:43;;;;;;;1.73;1.40;;;5.50;99.90;;;;;;5035445;28;20834;-83
2024/03/06 08:50:10;;;;;;;1.40;1.30;;;5.80;99.90;;;;;;5033864;28;20454;-84
2024/03/06 08:52:36;;;;;;;1.50;1.40;;;5.80;99.90;;;;;;5035103;28;20859;-82
2024/03/06 08:55:08;;;;;;;1.50;1.30;;;5.80;99.90;;;;;;5032361;28;20745;-83
2024/03/06 08:57:35;;;;;;;1.60;1.50;;;5.90;99.90;;;;;;5034507;28;20379;-82
2024/03/06 09:00:00;;;;;;;1.23;1.13;;;5.70;99.90;;;;;;5033549;28;20379;-83
2024/03/06 09:02:26;;;;;;;1.93;1.50;;;5.90;99.90;;;;;;5032896;28;20893;-81
2024/03/06 09:04:52;;;;;;;1.60;1.50;;;6.00;99.90;;;;;;5032075;28;20894;-83
2024/03/06 09:07:18;;;;;;;1.23;1.13;;;6.00;99.90;;;;;;5032418;28;20395;-82
2024/03/06 09:09:44;;;;;;;1.80;1.35;;;6.10;99.90;;;;;;5033815;28;20440;-83
2024/03/06 09:12:11;;;;;;;1.23;1.13;;;6.20;99.90;;;;;;5025455;28;20388;-83
2024/03/06 09:14:37;;;;;;;1.40;1.30;;;6.30;99.90;;;;;;5031340;28;20478;-80
2024/03/06 09:17:03;;;;;;;1.40;1.17;;;6.20;99.90;;;;;;5019138;28;20403;-82
2024/03/06 09:19:30;;;;;;;1.20;1.10;;;6.30;99.90;;;;;;5032821;28;20406;-82
2024/03/06 09:21:56;;;;;;;2.00;1.20;;;6.50;99.90;;;;;;5021204;28;20397;-82
2024/03/06 09:24:25;;;;;;;2.60;1.15;;;6.20;99.90;;;;;;5016392;28;20387;-83
2024/03/06 09:26:51;;;;;;;1.50;1.40;;;6.70;99.90;;;;;;5033671;28;20407;-82
2024/03/06 09:29:17;;;;;;;1.20;1.10;;;6.70;99.90;;;;;;5034003;28;20470;-83
2024/03/06 09:31:43;;;;;;;1.30;0.90;;;6.70;99.90;;;;;;5033301;28;20434;-83
2024/03/06 09:34:15;;;;;;;1.33;1.23;;;6.40;99.90;;;;;;5032072;28;20479;-82
2024/03/06 09:36:47;;;;;;;1.97;1.10;;;6.60;99.90;;;;;;5034945;28;20475;-82
2024/03/06 09:39:20;;;;;;;0.80;0.80;;;6.70;99.90;;;;;;5034886;28;20891;-82
2024/03/06 09:41:50;;;;;;;1.05;0.95;;;6.70;99.90;;;;;;5034033;28;20397;-83
2024/03/06 09:44:16;;;;;;;1.90;1.20;;;6.90;99.90;;;;;;5033736;28;20466;-83
2024/03/06 09:46:46;;;;;;;0.98;0.88;;;7.00;99.90;;;;;;5032640;28;20417;-83
2024/03/06 09:49:16;;;;;;;0.80;0.80;;;6.70;99.90;;;;;;5032794;28;20391;-83
2024/03/06 09:51:52;;;;;;;1.40;1.00;;;6.50;99.90;;;;;;5032813;28;20522;-82
2024/03/06 09:54:19;;;;;;;1.10;0.90;;;6.60;99.90;;;;;;5033654;28;20417;-83
2024/03/06 09:56:48;;;;;;;2.40;1.10;;;7.00;99.90;;;;;;5032823;28;20383;-82
2024/03/06 09:59:15;;;;;;;1.30;1.10;;;6.90;99.90;;;;;;5034570;28;20419;-83
2024/03/06 10:01:50;;;;;;;1.20;1.10;;;6.80;99.90;;;;;;5034030;28;20410;-83
2024/03/06 10:04:22;;;;;;;1.40;1.30;;;6.70;99.90;;;;;;5033223;28;20394;-83
2024/03/06 10:06:48;;;;;;;1.20;1.10;;;6.80;99.90;;;;;;5032253;28;20695;-83
2024/03/06 10:09:18;;;;;;;1.20;1.10;;;6.80;99.90;;;;;;5040036;28;20398;-82
2024/03/06 10:11:43;;;;;;;2.00;1.10;;;7.00;99.90;;;;;;5047854;28;20383;-81
2024/03/06 10:14:10;;;;;;;1.38;1.27;;;7.00;99.90;;;;;;5049961;28;20405;-82
2024/03/06 10:16:36;;;;;;;1.02;0.93;;;7.00;99.90;;;;;;5030583;28;20395;-81
2024/03/06 10:19:18;;;;;;;1.10;1.00;;;7.30;99.90;;;;;;5031130;28;20416;-82
2024/03/06 10:21:46;;;;;;;1.30;1.20;;;7.40;99.90;;;;;;5029227;28;20416;-82
2024/03/06 10:24:12;;;;;;;1.73;1.27;;;7.50;99.90;;;;;;5048370;28;20969;-82
2024/03/06 10:26:38;;;;;;;1.70;1.50;;;7.60;99.90;;;;;;5049634;28;20403;-81
2024/03/06 10:29:03;;;;;;;1.20;1.10;;;7.60;99.90;;;;;;5051003;28;20416;-82
2024/03/06 10:31:29;;;;;;;1.20;1.10;;;7.90;99.90;;;;;;5042485;28;20379;-83
2024/03/06 10:33:54;;;;;;;1.40;1.20;;;8.00;99.90;;;;;;5036407;28;20399;-82
2024/03/06 10:36:20;;;;;;;2.03;1.10;;;7.90;99.90;;;;;;5038541;28;20383;-83
2024/03/06 10:38:48;;;;;;;1.40;1.20;;;8.10;99.90;;;;;;5036957;28;20845;-83
2024/03/06 10:41:15;;;;;;;1.20;1.10;;;8.20;99.90;;;;;;5037669;28;20401;-83
2024/03/06 10:43:43;;;;;;;1.95;1.05;;;8.10;99.90;;;;;;5037670;28;20806;-83
2024/03/06 10:46:12;;;;;;;1.77;0.90;;;8.20;99.90;;;;;;5036091;28;20756;-83
2024/03/06 10:48:38;;;;;;;1.60;1.27;;;7.90;99.90;;;;;;5050169;28;20451;-83
2024/03/06 10:51:07;;;;;;;1.50;1.00;;;7.90;99.90;;;;;;5059110;28;20406;-82
2024/03/06 10:53:34;;;;;;;1.60;1.00;;;8.20;99.90;;;;;;5058699;28;20512;-82
2024/03/06 10:56:03;;;;;;;1.50;0.90;;;8.20;99.90;;;;;;5056041;28;20383;-82
2024/03/06 10:58:30;;;;;;;2.20;1.00;;;8.20;99.90;;;;;;5054293;28;20422;-82
2024/03/06 11:00:57;;;;;;;3.00;1.00;;;8.40;99.90;;;;;;5038560;28;20388;-82
2024/03/06 11:03:25;;;;;;;2.80;1.10;;;8.60;99.90;;;;;;5033895;28;20385;-82
2024/03/06 11:05:51;;;;;;;1.90;0.82;;;8.50;99.90;;;;;;5033678;28;20526;-83
2024/03/06 11:08:17;;;;;;;1.63;0.90;;;8.60;99.90;;;;;;5026278;28;20389;-84
2024/03/06 11:10:43;;;;;;;1.60;1.10;;;8.70;99.90;;;;;;5016556;28;20902;-84
2024/03/06 11:13:21;;;;;;;1.10;0.88;;;8.40;99.90;;;;;;5015608;28;20393;-83
2024/03/06 11:15:47;;;;;;;1.20;1.10;;;8.30;99.90;;;;;;5020267;28;20393;-84
2024/03/06 11:18:28;;;;;;;2.00;0.93;;;8.20;99.90;;;;;;5033807;28;20385;-82
2024/03/06 11:21:03;;;;;;;2.17;0.80;;;8.30;99.90;;;;;;5025721;28;20421;-84
2024/03/06 11:23:29;;;;;;;3.78;1.40;;;8.30;99.90;;;;;;5015812;28;20404;-83
2024/03/06 11:25:58;;;;;;;2.10;1.00;;;8.20;99.90;;;;;;5030623;28;20418;-84
2024/03/06 11:28:28;;;;;;;1.65;1.10;;;8.50;99.90;;;;;;5037135;28;21222;-84
2024/03/06 11:31:18;;;;;;;1.88;1.10;;;8.50;99.90;;;;;;5038037;28;20871;-83
2024/03/06 11:33:46;;;;;;;1.52;1.00;;;8.40;99.90;;;;;;5034938;28;20414;-84
2024/03/06 11:36:25;;;;;;;1.63;1.20;;;8.30;99.90;;;;;;5024573;28;20445;-83
2024/03/06 11:38:55;;;;;;;1.70;1.40;;;8.70;99.90;;;;;;5036357;28;20395;-83
2024/03/06 11:41:23;;;;;;;2.00;0.90;;;8.60;99.90;;;;;;5037325;28;20743;-84
2024/03/06 11:43:51;;;;;;;1.40;1.00;;;8.60;99.90;;;;;;5032538;28;20469;-83
2024/03/06 11:46:17;;;;;;;1.50;0.90;;;8.60;99.90;;;;;;5062750;23;20949;-77
2024/03/06 11:48:43;;;;;;;3.50;1.10;;;8.60;99.90;;;;;;5052897;28;20393;-77
2024/03/06 11:51:09;;;;;;;2.75;1.10;;;8.60;99.90;;;;;;5050171;28;20435;-77
2024/03/06 11:53:39;;;;;;;1.60;0.70;;;8.90;99.90;;;;;;5044468;28;20401;-77
2024/03/06 11:56:08;;;;;;;1.77;0.88;;;8.90;99.90;;;;;;5040835;28;20426;-77
2024/03/06 11:58:34;;;;;;;1.42;0.80;;;9.10;99.90;;;;;;5031643;28;20414;-77
2024/03/06 12:01:01;;;;;;;1.80;1.20;;;9.20;99.90;;;;;;5019906;28;20883;-77
2024/03/06 12:03:27;;;;;;;2.15;1.00;;;9.50;99.90;;;;;;5038103;28;20399;-78
2024/03/06 12:05:53;;;;;;;2.63;1.60;;;9.70;99.90;;;;;;5030832;28;20408;-78
2024/03/06 12:08:19;;;;;;;2.17;0.70;;;9.50;99.90;;;;;;5023117;28;20397;-76
2024/03/06 12:10:45;;;;;;;2.03;0.80;;;8.80;99.90;;;;;;5015810;28;20420;-78
2024/03/06 12:13:11;;;;;;;3.08;0.93;;;8.90;99.90;;;;;;5014601;28;20392;-77
2024/03/06 12:15:36;;;;;;;1.60;0.80;;;8.90;99.90;;;;;;5014436;28;20385;-76
2024/03/06 12:18:02;;;;;;;1.60;1.00;;;9.20;99.90;;;;;;5013285;28;20381;-77
2024/03/06 12:20:28;;;;;;;2.50;1.10;;;9.50;99.90;;;;;;5025349;28;20391;-77
2024/03/06 12:22:55;;;;;;;1.38;0.80;;;10.00;99.90;;;;;;5031940;28;20387;-76
2024/03/06 12:25:22;;;;;;;2.60;1.00;;;11.10;99.90;;;;;;5032606;28;20402;-77
2024/03/06 12:27:49;;;;;;;2.70;1.00;;;12.20;99.90;;;;;;5044106;28;20432;-77
2024/03/06 12:30:18;;;;;;;1.53;0.63;;;11.10;99.90;;;;;;5034008;28;20416;-77
2024/03/06 12:33:04;;;;;;;2.53;1.20;;;11.00;99.90;;;;;;5025964;28;20389;-77
2024/03/06 12:35:30;;;;;;;1.70;1.20;;;11.30;99.90;;;;;;5012371;28;20769;-78
2024/03/06 12:37:56;;;;;;;2.60;0.90;;;11.60;99.90;;;;;;5012964;28;20424;-77
2024/03/06 12:40:22;;;;;;;3.00;1.00;;;12.30;99.90;;;;;;5011531;28;20509;-77
2024/03/06 12:42:49;;;;;;;2.50;0.90;;;11.60;99.90;;;;;;5012199;28;20389;-77
2024/03/06 12:45:15;;;;;;;2.30;0.82;;;11.20;99.90;;;;;;5020598;28;20434;-77
2024/03/06 12:47:42;;;;;;;1.47;0.80;;;11.60;99.90;;;;;;5032016;28;20384;-77
2024/03/06 12:50:08;;;;;;;1.50;1.08;;;11.20;99.90;;;;;;5032112;28;20775;-77
2024/03/06 12:52:34;;;;;;;0.87;0.70;;;10.90;99.90;;;;;;5032400;28;20466;-76
2024/03/06 12:55:00;;;;;;;1.10;0.70;;;10.90;99.90;;;;;;5033147;28;20390;-76